createdAt,value
2023-02-15T00:00:11.742Z,97773.78
2023-02-15T00:02:39.241Z,97783.06
2023-02-15T00:05:06.650Z,97783.53
2023-02-15T00:07:33.819Z,97781.59
2023-02-15T00:10:00.841Z,97776.09
2023-02-15T00:12:27.952Z,97778.81
2023-02-15T00:14:54.883Z,97782.06
2023-02-15T00:17:22.709Z,97778.50
2023-02-15T00:19:49.688Z,97772.66
2023-02-15T00:22:16.700Z,97772.16
2023-02-15T00:24:43.709Z,97770.84
2023-02-15T00:27:10.640Z,97773.59
2023-02-15T00:29:37.618Z,97773.75
2023-02-15T00:32:05.149Z,97770.69
2023-02-15T00:34:32.129Z,97777.66
2023-02-15T00:36:59.168Z,97769.56
2023-02-15T00:39:26.700Z,97763.72
2023-02-15T00:41:53.660Z,97760.00
2023-02-15T00:44:20.649Z,97764.72
2023-02-15T00:46:47.620Z,97761.47
2023-02-15T00:49:14.672Z,97766.34
2023-02-15T00:51:41.725Z,97756.47
2023-02-15T00:54:08.943Z,97753.44
2023-02-15T00:56:35.924Z,97752.78
2023-02-15T00:59:04.309Z,97749.84
2023-02-15T01:01:31.409Z,97754.72
2023-02-15T01:03:58.529Z,97757.97
2023-02-15T01:06:25.618Z,97756.06
2023-02-15T01:08:52.771Z,97757.97
2023-02-15T01:11:24.992Z,97752.47
2023-02-15T01:13:54.128Z,97751.84
2023-02-15T01:16:22.054Z,97751.50
2023-02-15T01:18:49.411Z,97741.63
2023-02-15T01:21:22.125Z,97747.44
2023-02-15T01:23:49.439Z,97735.81
2023-02-15T01:26:17.070Z,97738.56
2023-02-15T01:28:44.682Z,97738.41
2023-02-15T01:31:22.687Z,97733.69
2023-02-15T01:33:49.863Z,97723.97
2023-02-15T01:36:18.614Z,97728.03
2023-02-15T01:38:45.957Z,97724.16
2023-02-15T01:41:23.466Z,97719.63
2023-02-15T01:43:59.441Z,97728.22
2023-02-15T01:46:39.265Z,97721.09
2023-02-15T01:49:18.121Z,97721.91
2023-02-15T01:51:47.090Z,97723.19
2023-02-15T01:54:22.895Z,97715.25
2023-02-15T01:56:50.156Z,97711.72
2023-02-15T01:59:21.877Z,97713.16
2023-02-15T02:01:51.682Z,97703.44
2023-02-15T02:04:32.854Z,97704.22
2023-02-15T02:07:00.893Z,97699.38
2023-02-15T02:09:28.239Z,97699.69
2023-02-15T02:11:55.642Z,97691.09
2023-02-15T02:14:24.159Z,97693.41
2023-02-15T02:16:57.180Z,97682.84
2023-02-15T02:19:42.086Z,97683.50
2023-02-15T02:22:19.054Z,97686.09
2023-02-15T02:25:01.941Z,97683.50
2023-02-15T02:27:40.539Z,97675.72
2023-02-15T02:30:29.507Z,97679.28
2023-02-15T02:33:02.471Z,97679.78
2023-02-15T02:35:37.510Z,97678.31
2023-02-15T02:38:28.557Z,97674.91
2023-02-15T02:41:30.939Z,97673.78
2023-02-15T02:44:06.820Z,97676.06
2023-02-15T02:46:40.631Z,97674.91
2023-02-15T02:49:07.729Z,97672.16
2023-02-15T02:51:34.599Z,97680.91
2023-02-15T02:54:06.945Z,97664.69
2023-02-15T02:56:50.513Z,97672.66
2023-02-15T02:59:24.690Z,97668.28
2023-02-15T03:02:14.122Z,97658.22
2023-02-15T03:04:46.757Z,97662.13
2023-02-15T03:07:23.241Z,97668.94
2023-02-15T03:09:53.390Z,97657.91
2023-02-15T03:12:29.417Z,97663.09
2023-02-15T03:15:06.355Z,97667.94
2023-02-15T03:17:36.788Z,97656.09
2023-02-15T03:20:11.035Z,97658.03
2023-02-15T03:22:49.495Z,97656.91
2023-02-15T03:25:42.973Z,97652.03
2023-02-15T03:28:16.713Z,97652.03
2023-02-15T03:30:47.123Z,97658.53
2023-02-15T03:33:15.540Z,97664.34
2023-02-15T03:35:50.845Z,97662.56
2023-02-15T03:38:26.919Z,97664.53
2023-02-15T03:41:12.518Z,97658.53
2023-02-15T03:43:45.310Z,97666.31
2023-02-15T03:46:35.916Z,97661.13
2023-02-15T03:49:08.705Z,97667.28
2023-02-15T03:51:40.515Z,97664.19
2023-02-15T03:54:14.495Z,97662.75
2023-02-15T03:57:03.415Z,97659.16
2023-02-15T03:59:49.235Z,97662.56
2023-02-15T04:02:23.839Z,97668.09
2023-02-15T04:04:50.959Z,97667.56
2023-02-15T04:07:17.894Z,97658.00
2023-02-15T04:10:03.495Z,97659.63
2023-02-15T04:12:30.415Z,97656.56
2023-02-15T04:15:16.136Z,97664.97
2023-02-15T04:17:43.052Z,97661.38
2023-02-15T04:20:28.797Z,97663.00
2023-02-15T04:23:14.675Z,97659.47
2023-02-15T04:25:41.651Z,97657.69
2023-02-15T04:28:08.933Z,97656.56
2023-02-15T04:30:35.987Z,97658.50
2023-02-15T04:33:02.931Z,97654.94
2023-02-15T04:35:29.879Z,97652.34
2023-02-15T04:37:57.038Z,97657.53
2023-02-15T04:40:24.001Z,97656.88
2023-02-15T04:42:51.045Z,97653.97
2023-02-15T04:45:18.777Z,97655.59
2023-02-15T04:47:46.060Z,97657.34
2023-02-15T04:50:13.133Z,97664.31
2023-02-15T04:52:40.247Z,97667.06
2023-02-15T04:55:07.789Z,97665.28
2023-02-15T04:57:34.805Z,97658.63
2023-02-15T05:00:01.841Z,97661.25
2023-02-15T05:02:28.871Z,97661.72
2023-02-15T05:04:55.797Z,97658.16
2023-02-15T05:07:22.820Z,97651.03
2023-02-15T05:09:49.966Z,97651.81
2023-02-15T05:12:17.013Z,97650.22
2023-02-15T05:14:44.018Z,97644.38
2023-02-15T05:17:10.950Z,97641.81
2023-02-15T05:19:37.918Z,97644.69
2023-02-15T05:22:05.031Z,97649.53
2023-02-15T05:24:50.678Z,97640.28
2023-02-15T05:27:36.452Z,97641.84
2023-02-15T05:30:03.972Z,97648.31
2023-02-15T05:32:31.254Z,97645.09
2023-02-15T05:34:58.616Z,97640.53
2023-02-15T05:37:25.596Z,97641.84
2023-02-15T05:39:52.682Z,97644.09
2023-02-15T05:42:19.679Z,97638.28
2023-02-15T05:44:46.647Z,97643.13
2023-02-15T05:47:13.675Z,97636.19
2023-02-15T05:49:40.698Z,97635.66
2023-02-15T05:52:07.805Z,97630.66
2023-02-15T05:54:34.941Z,97637.28
2023-02-15T05:57:01.938Z,97640.16
2023-02-15T05:59:28.947Z,97649.59
2023-02-15T06:01:56.118Z,97649.41
2023-02-15T06:04:23.082Z,97643.25
2023-02-15T06:06:50.130Z,97650.66
2023-02-15T06:09:19.522Z,97653.78
2023-02-15T06:11:46.850Z,97652.31
2023-02-15T06:14:13.959Z,97649.84
2023-02-15T06:16:40.941Z,97647.59
2023-02-15T06:19:08.047Z,97651.28
2023-02-15T06:21:35.805Z,97651.03
2023-02-15T06:24:02.955Z,97658.97
2023-02-15T06:26:30.191Z,97658.84
2023-02-15T06:28:57.279Z,97658.69
2023-02-15T06:31:24.493Z,97660.66
2023-02-15T06:33:51.582Z,97666.69
2023-02-15T06:36:18.600Z,97663.44
2023-02-15T06:38:45.689Z,97669.59
2023-02-15T06:41:12.644Z,97665.84
2023-02-15T06:43:41.041Z,97671.63
2023-02-15T06:46:08.319Z,97668.53
2023-02-15T06:48:35.285Z,97666.72
2023-02-15T06:51:02.426Z,97671.44
2023-02-15T06:53:29.541Z,97674.19
2023-02-15T06:56:10.358Z,97679.66
2023-02-15T06:58:41.360Z,97672.53
2023-02-15T07:01:09.847Z,97672.19
2023-02-15T07:03:48.994Z,97680.06
2023-02-15T07:06:32.240Z,97677.50
2023-02-15T07:09:17.605Z,97679.28
2023-02-15T07:12:24.907Z,97680.72
2023-02-15T07:15:12.675Z,97677.66
2023-02-15T07:17:58.778Z,97676.06
2023-02-15T07:20:42.301Z,97670.88
2023-02-15T07:23:25.278Z,97670.44
2023-02-15T07:26:15.083Z,97668.19
2023-02-15T07:28:56.890Z,97660.47
2023-02-15T07:31:41.338Z,97656.59
2023-02-15T07:34:25.124Z,97657.59
2023-02-15T07:37:18.664Z,97657.78
2023-02-15T07:40:00.152Z,97657.31
2023-02-15T07:42:53.137Z,97651.66
2023-02-15T07:45:36.945Z,97652.16
2023-02-15T07:48:18.423Z,97659.94
2023-02-15T07:50:57.483Z,97651.53
2023-02-15T07:53:39.786Z,97656.06
2023-02-15T07:56:26.926Z,97654.31
2023-02-15T07:59:09.879Z,97654.00
2023-02-15T08:01:58.087Z,97649.47
2023-02-15T08:04:37.852Z,97650.13
2023-02-15T08:07:17.305Z,97652.06
2023-02-15T08:09:58.183Z,97653.03
2023-02-15T08:12:40.996Z,97644.78
2023-02-15T08:15:20.243Z,97644.13
2023-02-15T08:18:00.745Z,97646.56
2023-02-15T08:20:48.979Z,97650.13
2023-02-15T08:23:29.116Z,97641.22
2023-02-15T08:26:14.466Z,97645.59
2023-02-15T08:29:00.718Z,97649.66
2023-02-15T08:31:41.866Z,97653.03
2023-02-15T08:34:28.526Z,97656.91
2023-02-15T08:37:07.523Z,97657.09
2023-02-15T08:39:46.454Z,97650.09
2023-02-15T08:42:27.425Z,97645.72
2023-02-15T08:45:07.185Z,97642.03
2023-02-15T08:47:45.005Z,97646.91
2023-02-15T08:50:21.954Z,97644.94
2023-02-15T08:53:00.041Z,97644.31
2023-02-15T08:55:40.196Z,97648.81
2023-02-15T08:58:20.943Z,97644.09
2023-02-15T09:00:59.510Z,97648.78
2023-02-15T09:03:41.750Z,97647.47
2023-02-15T09:06:23.500Z,97646.97
2023-02-15T09:09:03.585Z,97648.47
2023-02-15T09:11:59.373Z,97644.91
2023-02-15T09:14:46.754Z,97645.50
2023-02-15T09:17:25.930Z,97645.53
2023-02-15T09:20:16.691Z,97646.31
2023-02-15T09:22:59.070Z,97644.19
2023-02-15T09:25:40.760Z,97638.31
2023-02-15T09:28:32.039Z,97637.34
2023-02-15T09:31:37.873Z,97627.09
2023-02-15T09:34:23.750Z,97634.34
2023-02-15T09:37:04.942Z,97633.28
2023-02-15T09:39:49.003Z,97632.84
2023-02-15T09:42:45.287Z,97631.78
2023-02-15T09:45:37.533Z,97638.13
2023-02-15T09:48:41.966Z,97633.25
2023-02-15T09:51:33.173Z,97624.31
2023-02-15T09:54:35.256Z,97620.22
2023-02-15T09:57:39.159Z,97614.31
2023-02-15T10:00:37.246Z,97617.81
2023-02-15T10:03:23.279Z,97618.09
2023-02-15T10:06:30.678Z,97614.97
2023-02-15T10:09:50.548Z,97612.09
2023-02-15T10:12:55.891Z,97614.47
2023-02-15T10:15:53.472Z,97616.81
2023-02-15T10:19:00.590Z,97612.28
2023-02-15T10:21:47.989Z,97606.88
2023-02-15T10:25:06.922Z,97607.38
2023-02-15T10:27:55.794Z,97599.91
2023-02-15T10:30:49.783Z,97599.53
2023-02-15T10:33:36.102Z,97599.38
2023-02-15T10:36:35.051Z,97586.53
2023-02-15T10:39:27.613Z,97590.34
2023-02-15T10:42:26.417Z,97584.59
2023-02-15T10:45:21.021Z,97579.91
2023-02-15T10:48:26.303Z,97572.00
2023-02-15T10:51:15.919Z,97565.38
2023-02-15T10:54:19.778Z,97558.16
2023-02-15T10:57:26.609Z,97567.81
2023-02-15T11:00:25.387Z,97565.44
2023-02-15T11:03:46.038Z,97562.66
2023-02-15T11:06:36.888Z,97551.78
2023-02-15T11:09:27.280Z,97548.75
2023-02-15T11:12:09.753Z,97540.69
2023-02-15T11:15:16.063Z,97533.25
2023-02-15T11:18:05.649Z,97533.25
2023-02-15T11:20:55.165Z,97523.13
2023-02-15T11:23:34.229Z,97518.31
2023-02-15T11:26:26.550Z,97517.09
2023-02-15T11:29:17.350Z,97519.50
2023-02-15T11:32:02.488Z,97509.41
2023-02-15T11:35:14.801Z,97499.28
2023-02-15T11:38:24.890Z,97502.09
2023-02-15T11:41:27.880Z,97493.06
2023-02-15T11:44:23.548Z,97502.22
2023-02-15T11:47:02.393Z,97495.69
2023-02-15T11:49:46.731Z,97493.34
2023-02-15T11:52:31.751Z,97486.69
2023-02-15T11:55:26.830Z,97490.09
2023-02-15T11:58:19.413Z,97484.16
2023-02-15T12:13:44.574Z,97467.16
2023-02-15T12:16:30.044Z,97466.59
2023-02-15T12:19:16.479Z,97458.78
2023-02-15T12:22:02.697Z,97462.78
2023-02-15T12:24:51.285Z,97460.03
2023-02-15T12:27:42.998Z,97452.06
2023-02-15T12:30:47.009Z,97456.97
2023-02-15T12:33:37.130Z,97455.28
2023-02-15T12:36:31.414Z,97448.13
2023-02-15T12:39:32.949Z,97449.09
2023-02-15T12:42:27.831Z,97441.97
2023-02-15T12:45:19.149Z,97437.88
2023-02-15T12:48:25.418Z,97438.50
2023-02-15T12:51:19.928Z,97436.56
2023-02-15T12:54:03.938Z,97426.00
2023-02-15T12:56:45.230Z,97426.91
2023-02-15T12:59:28.490Z,97424.84
2023-02-15T13:02:12.207Z,97422.38
2023-02-15T13:04:59.964Z,97425.59
2023-02-15T13:07:43.352Z,97418.28
2023-02-15T13:10:46.302Z,97411.19
2023-02-15T13:13:43.316Z,97418.63
2023-02-15T13:16:15.240Z,97411.41
2023-02-15T13:18:51.638Z,97409.41
2023-02-15T13:21:42.187Z,97402.84
2023-02-15T13:24:40.218Z,97411.97
2023-02-15T13:27:24.852Z,97414.16
2023-02-15T13:30:02.814Z,97403.50
2023-02-15T13:32:47.003Z,97405.38
2023-02-15T13:35:23.235Z,97396.97
2023-02-15T13:38:13.993Z,97406.53
2023-02-15T13:41:01.758Z,97392.94
2023-02-15T13:43:54.661Z,97401.47
2023-02-15T13:46:48.033Z,97396.31
2023-02-15T13:49:31.101Z,97392.50
2023-02-15T13:52:35.491Z,97387.59
2023-02-15T13:55:11.232Z,97388.06
2023-02-15T13:58:00.241Z,97391.56
2023-02-15T14:01:06.143Z,97397.25
2023-02-15T14:04:09.581Z,97394.06
2023-02-15T14:06:50.606Z,97387.31
2023-02-15T14:09:54.936Z,97386.63
2023-02-15T14:12:52.322Z,97388.47
2023-02-15T14:15:39.189Z,97392.47
2023-02-15T14:18:28.737Z,97394.69
2023-02-15T14:21:06.344Z,97400.69
2023-02-15T14:24:17.257Z,97405.06
2023-02-15T14:27:02.007Z,97405.19
2023-02-15T14:29:36.482Z,97410.16
2023-02-15T14:32:25.781Z,97400.84
2023-02-15T14:35:05.743Z,97398.69
2023-02-15T14:37:54.151Z,97399.00
2023-02-15T14:41:08.283Z,97396.84
2023-02-15T14:43:57.764Z,97403.78
2023-02-15T14:47:01.454Z,97403.28
2023-02-15T14:49:43.419Z,97401.50
2023-02-15T14:52:18.024Z,97405.50
2023-02-15T14:54:52.356Z,97410.13
2023-02-15T14:57:31.159Z,97410.31
2023-02-15T15:00:12.685Z,97409.44
2023-02-15T15:03:03.710Z,97399.56
2023-02-15T15:05:52.296Z,97401.31
2023-02-15T15:08:40.201Z,97407.47
2023-02-15T15:11:44.724Z,97396.16
2023-02-15T15:14:40.620Z,97394.03
2023-02-15T15:17:18.258Z,97394.38
2023-02-15T15:19:57.549Z,97397.75
2023-02-15T15:22:34.213Z,97392.47
2023-02-15T15:28:04.339Z,97393.41
2023-02-15T15:30:42.114Z,97393.75
2023-02-15T15:33:37.268Z,97393.91
2023-02-15T15:36:35.920Z,97402.63
2023-02-15T15:39:43.523Z,97393.56
2023-02-15T15:42:33.515Z,97389.09
2023-02-15T15:45:14.321Z,97393.41
2023-02-15T15:48:07.412Z,97389.31
2023-02-15T15:50:47.005Z,97388.09
2023-02-15T15:53:28.983Z,97386.59
2023-02-15T15:56:08.954Z,97384.19
2023-02-15T15:58:48.898Z,97385.16
2023-02-15T16:01:43.731Z,97385.91
2023-02-15T16:04:31.978Z,97388.63
2023-02-15T16:07:25.271Z,97390.53
2023-02-15T16:10:06.673Z,97389.31
2023-02-15T16:12:45.696Z,97392.03
2023-02-15T16:15:55.469Z,97385.13
2023-02-15T16:18:34.561Z,97376.09
2023-02-15T16:21:09.945Z,97381.41
2023-02-15T16:24:14.607Z,97381.94
2023-02-15T16:27:00.298Z,97379.44
2023-02-15T16:29:41.388Z,97374.16
2023-02-15T16:32:26.026Z,97372.28
2023-02-15T16:35:07.676Z,97376.41
2023-02-15T16:37:41.055Z,97368.72
2023-02-15T16:40:53.769Z,97372.75
2023-02-15T16:43:38.373Z,97371.56
2023-02-15T16:46:34.490Z,97370.41
2023-02-15T16:49:19.022Z,97376.50
2023-02-15T16:52:04.237Z,97368.16
2023-02-15T16:54:38.752Z,97380.03
2023-02-15T16:57:25.845Z,97384.34
2023-02-15T16:59:57.499Z,97382.00
2023-02-15T17:02:55.955Z,97380.28
2023-02-15T17:05:45.658Z,97396.25
2023-02-15T17:08:25.126Z,97389.69
2023-02-15T17:11:05.251Z,97394.75
2023-02-15T17:13:32.798Z,97397.06
2023-02-15T17:15:59.761Z,97398.06
2023-02-15T17:18:59.636Z,97406.69
2023-02-15T17:21:34.200Z,97405.44
2023-02-15T17:24:05.325Z,97409.34
2023-02-15T17:26:35.295Z,97404.50
2023-02-15T17:29:12.722Z,97404.81
2023-02-15T17:31:40.263Z,97409.72
2023-02-15T17:34:07.300Z,97409.44
2023-02-15T17:36:34.311Z,97413.53
2023-02-15T17:39:21.120Z,97412.22
2023-02-15T17:41:49.272Z,97405.94
2023-02-15T17:44:17.294Z,97407.44
2023-02-15T17:46:44.891Z,97418.75
2023-02-15T17:49:34.984Z,97407.75
2023-02-15T17:52:02.859Z,97404.88
2023-02-15T17:54:48.654Z,97415.25
2023-02-15T17:57:16.808Z,97417.22
2023-02-15T18:00:02.353Z,97407.38
2023-02-15T18:02:58.707Z,97418.06
2023-02-15T18:05:44.302Z,97407.84
2023-02-15T18:08:35.206Z,97404.47
2023-02-15T18:11:21.307Z,97406.56
2023-02-15T18:13:48.770Z,97402.72
2023-02-15T18:16:20.571Z,97404.66
2023-02-15T18:18:47.680Z,97406.75
2023-02-15T18:21:15.090Z,97403.53
2023-02-15T18:23:42.797Z,97404.34
2023-02-15T18:26:17.463Z,97396.75
2023-02-15T18:28:44.520Z,97401.41
2023-02-15T18:31:12.931Z,97396.59
2023-02-15T18:33:47.488Z,97390.75
2023-02-15T18:36:21.665Z,97396.09
2023-02-15T18:38:49.321Z,97403.22
2023-02-15T18:41:20.910Z,97403.41
2023-02-15T18:43:52.642Z,97400.97
2023-02-15T18:46:19.921Z,97399.50
2023-02-15T18:48:46.852Z,97398.22
2023-02-15T18:51:22.322Z,97398.53
2023-02-15T18:53:52.808Z,97391.13
2023-02-15T18:56:22.681Z,97391.59
2023-02-15T18:58:50.248Z,97402.75
2023-02-15T19:01:20.314Z,97408.75
2023-02-15T19:03:49.039Z,97396.31
2023-02-15T19:06:18.442Z,97398.41
2023-02-15T19:08:48.522Z,97404.53
2023-02-15T19:11:23.358Z,97398.75
2023-02-15T19:13:52.306Z,97399.06
2023-02-15T19:16:35.847Z,97391.44
2023-02-15T19:19:02.887Z,97394.03
2023-02-15T19:21:32.067Z,97389.81
2023-02-15T19:24:05.545Z,97390.78
2023-02-15T19:26:44.843Z,97384.66
2023-02-15T19:29:15.022Z,97380.44
2023-02-15T19:31:42.622Z,97389.81
2023-02-15T19:34:16.410Z,97389.00
2023-02-15T19:36:46.325Z,97385.47
2023-02-15T19:39:38.695Z,97378.50
2023-02-15T19:42:06.037Z,97375.44
2023-02-15T19:44:33.225Z,97375.44
2023-02-15T19:47:00.192Z,97378.03
2023-02-15T19:49:27.246Z,97370.44
2023-02-15T19:51:54.375Z,97379.47
2023-02-15T19:54:31.891Z,97380.13
2023-02-15T19:56:59.075Z,97372.06
2023-02-15T19:59:32.526Z,97373.81
2023-02-15T20:02:00.011Z,97380.44
2023-02-15T20:04:27.478Z,97380.13
2023-02-15T20:07:00.788Z,97374.59
2023-02-15T20:09:38.004Z,97369.44
2023-02-15T20:12:05.115Z,97377.50
2023-02-15T20:14:32.210Z,97371.66
2023-02-15T20:16:59.257Z,97379.41
2023-02-15T20:19:26.348Z,97374.22
2023-02-15T20:21:59.619Z,97372.91
2023-02-15T20:24:28.997Z,97374.84
2023-02-15T20:26:55.995Z,97376.34
2023-02-15T20:29:23.126Z,97372.59
2023-02-15T20:31:51.355Z,97377.13
2023-02-15T20:34:19.405Z,97377.81
2023-02-15T20:36:46.403Z,97374.22
2023-02-15T20:39:16.580Z,97365.50
2023-02-15T20:41:48.212Z,97361.31
2023-02-15T20:44:17.986Z,97360.19
2023-02-15T20:46:45.058Z,97354.19
2023-02-15T20:49:12.267Z,97363.09
2023-02-15T20:51:41.523Z,97358.25
2023-02-15T20:54:22.720Z,97348.53
2023-02-15T20:56:49.820Z,97340.13
2023-02-15T20:59:24.635Z,97346.09
2023-02-15T21:02:03.577Z,97347.06
2023-02-15T21:04:33.840Z,97350.63
2023-02-15T21:07:01.669Z,97352.25
2023-02-15T21:09:30.123Z,97340.59
2023-02-15T21:12:00.339Z,97342.53
2023-02-15T21:14:29.709Z,97340.91
2023-02-15T21:16:58.971Z,97339.28
2023-02-15T21:19:26.325Z,97335.41
2023-02-15T21:21:54.623Z,97330.41
2023-02-15T21:24:29.517Z,97330.56
2023-02-15T21:27:01.894Z,97334.09
2023-02-15T21:29:30.627Z,97328.94
2023-02-15T21:32:00.703Z,97325.38
2023-02-15T21:34:28.139Z,97328.47
2023-02-15T21:36:55.856Z,97315.06
2023-02-15T21:39:26.734Z,97320.91
2023-02-15T21:42:15.034Z,97317.34
2023-02-15T21:45:01.242Z,97308.78
2023-02-15T21:47:49.398Z,97309.44
2023-02-15T21:50:40.096Z,97304.72
2023-02-15T21:53:13.105Z,97310.84
2023-02-15T21:55:40.701Z,97311.66
2023-02-15T21:58:22.418Z,97306.34
2023-02-15T22:00:51.642Z,97311.03
2023-02-15T22:03:20.143Z,97309.91
2023-02-15T22:05:47.601Z,97307.47
2023-02-15T22:08:15.694Z,97301.19
2023-02-15T22:10:44.534Z,97301.03
2023-02-15T22:13:28.909Z,97286.19
2023-02-15T22:15:57.371Z,97292.78
2023-02-15T22:18:34.597Z,97294.41
2023-02-15T22:21:04.309Z,97290.84
2023-02-15T22:23:32.039Z,97287.47
2023-02-15T22:26:08.447Z,97293.59
2023-02-15T22:28:39.847Z,97290.69
2023-02-15T22:31:15.053Z,97294.53
2023-02-15T22:33:44.964Z,97299.22
2023-02-15T22:36:25.011Z,97300.34
2023-02-15T22:38:52.505Z,97310.19
2023-02-15T22:41:20.462Z,97310.50
2023-02-15T22:43:48.190Z,97311.44
2023-02-15T22:46:18.025Z,97312.41
2023-02-15T22:48:46.461Z,97304.66
2023-02-15T22:51:15.723Z,97300.94
2023-02-15T22:53:42.740Z,97301.44
2023-02-15T22:56:17.355Z,97304.66
2023-02-15T22:58:45.200Z,97303.19
2023-02-15T23:01:24.869Z,97302.25
2023-02-15T23:03:52.056Z,97300.47
2023-02-15T23:06:18.978Z,97294.34
2023-02-15T23:08:46.135Z,97295.75
2023-02-15T23:11:13.119Z,97299.16
2023-02-15T23:13:40.319Z,97298.03
2023-02-15T23:16:13.511Z,97300.09
2023-02-15T23:18:42.931Z,97305.44
2023-02-15T23:21:15.629Z,97296.88
2023-02-15T23:23:44.859Z,97297.50
2023-02-15T23:26:32.909Z,97291.19
2023-02-15T23:29:01.888Z,97296.50
2023-02-15T23:31:32.261Z,97284.72
2023-02-15T23:34:12.710Z,97285.97
2023-02-15T23:36:40.162Z,97288.56
2023-02-15T23:39:37.482Z,97285.50
2023-02-15T23:42:10.250Z,97286.59
2023-02-15T23:44:38.669Z,97277.41
2023-02-15T23:47:07.223Z,97284.50
2023-02-15T23:49:34.247Z,97282.38
2023-02-15T23:52:02.090Z,97283.50
2023-02-15T23:54:29.589Z,97289.56
2023-02-15T23:57:01.592Z,97286.84
2023-02-15T23:59:31.740Z,97289.56
